sensor_id;sensor_type;location;lat;lon;timestamp;temperature;humidity
32293;DHT22;43233;48.608;8.838;2022-09-28T00:01:53;8.50;99.90
32293;DHT22;43233;48.608;8.838;2022-09-28T00:04:19;8.50;99.90
32293;DHT22;43233;48.608;8.838;2022-09-28T00:06:45;8.50;99.90
32293;DHT22;43233;48.608;8.838;2022-09-28T00:09:15;8.50;99.90
32293;DHT22;43233;48.608;8.838;2022-09-28T00:11:41;8.50;99.90
32293;DHT22;43233;48.608;8.838;2022-09-28T00:14:09;8.50;99.90
32293;DHT22;43233;48.608;8.838;2022-09-28T00:16:39;8.50;99.90
32293;DHT22;43233;48.608;8.838;2022-09-28T00:19:06;8.40;99.90
32293;DHT22;43233;48.608;8.838;2022-09-28T00:21:34;8.40;99.90
32293;DHT22;43233;48.608;8.838;2022-09-28T00:24:02;8.40;99.90
32293;DHT22;43233;48.608;8.838;2022-09-28T00:26:39;8.50;99.90
32293;DHT22;43233;48.608;8.838;2022-09-28T00:29:07;8.60;99.90
32293;DHT22;43233;48.608;8.838;2022-09-28T00:31:37;8.60;99.90
32293;DHT22;43233;48.608;8.838;2022-09-28T00:34:02;8.70;99.90
32293;DHT22;43233;48.608;8.838;2022-09-28T00:36:31;8.70;99.90
32293;DHT22;43233;48.608;8.838;2022-09-28T00:38:58;8.70;99.90
32293;DHT22;43233;48.608;8.838;2022-09-28T00:41:27;8.70;99.90
32293;DHT22;43233;48.608;8.838;2022-09-28T00:49:49;8.70;99.90
32293;DHT22;43233;48.608;8.838;2022-09-28T00:52:24;8.70;99.90
32293;DHT22;43233;48.608;8.838;2022-09-28T00:54:52;8.80;99.90
32293;DHT22;43233;48.608;8.838;2022-09-28T00:57:20;8.80;99.90
32293;DHT22;43233;48.608;8.838;2022-09-28T00:59:47;8.80;99.90
32293;DHT22;43233;48.608;8.838;2022-09-28T01:02:14;8.90;99.90
32293;DHT22;43233;48.608;8.838;2022-09-28T01:04:40;8.90;99.90
32293;DHT22;43233;48.608;8.838;2022-09-28T01:07:07;8.90;99.90
32293;DHT22;43233;48.608;8.838;2022-09-28T01:09:36;8.90;99.90
32293;DHT22;43233;48.608;8.838;2022-09-28T01:12:02;9.00;99.90
32293;DHT22;43233;48.608;8.838;2022-09-28T01:14:28;8.90;99.90
32293;DHT22;43233;48.608;8.838;2022-09-28T01:17:15;8.90;99.90
32293;DHT22;43233;48.608;8.838;2022-09-28T01:30:07;8.80;99.90
32293;DHT22;43233;48.608;8.838;2022-09-28T01:38:16;8.80;99.90
32293;DHT22;43233;48.608;8.838;2022-09-28T01:40:43;8.90;99.90
32293;DHT22;43233;48.608;8.838;2022-09-28T01:43:22;8.80;99.90
32293;DHT22;43233;48.608;8.838;2022-09-28T01:45:54;8.90;99.90
32293;DHT22;43233;48.608;8.838;2022-09-28T01:48:29;9.00;99.90
32293;DHT22;43233;48.608;8.838;2022-09-28T01:50:59;9.00;99.90
32293;DHT22;43233;48.608;8.838;2022-09-28T01:53:32;9.00;99.90
32293;DHT22;43233;48.608;8.838;2022-09-28T01:56:08;9.00;99.90
32293;DHT22;43233;48.608;8.838;2022-09-28T01:58:41;9.00;99.90
32293;DHT22;43233;48.608;8.838;2022-09-28T02:01:16;9.00;99.90
32293;DHT22;43233;48.608;8.838;2022-09-28T02:04:34;9.00;99.90
32293;DHT22;43233;48.608;8.838;2022-09-28T02:06:39;9.00;99.90
32293;DHT22;43233;48.608;8.838;2022-09-28T02:09:13;9.10;99.90
32293;DHT22;43233;48.608;8.838;2022-09-28T02:11:46;9.00;99.90
32293;DHT22;43233;48.608;8.838;2022-09-28T02:14:15;9.00;99.90
32293;DHT22;43233;48.608;8.838;2022-09-28T02:16:43;9.00;99.90
32293;DHT22;43233;48.608;8.838;2022-09-28T02:19:18;9.00;99.90
32293;DHT22;43233;48.608;8.838;2022-09-28T02:24:31;9.20;99.90
32293;DHT22;43233;48.608;8.838;2022-09-28T02:27:01;9.10;99.90
32293;DHT22;43233;48.608;8.838;2022-09-28T02:29:27;9.10;99.90
32293;DHT22;43233;48.608;8.838;2022-09-28T02:31:53;9.10;99.90
32293;DHT22;43233;48.608;8.838;2022-09-28T02:34:19;9.10;99.90
32293;DHT22;43233;48.608;8.838;2022-09-28T02:36:45;9.10;99.90
32293;DHT22;43233;48.608;8.838;2022-09-28T02:39:13;9.20;99.90
32293;DHT22;43233;48.608;8.838;2022-09-28T02:41:50;9.20;99.90
32293;DHT22;43233;48.608;8.838;2022-09-28T03:03:34;9.10;99.90
32293;DHT22;43233;48.608;8.838;2022-09-28T03:06:15;9.10;99.90
32293;DHT22;43233;48.608;8.838;2022-09-28T03:11:40;9.00;99.90
32293;DHT22;43233;48.608;8.838;2022-09-28T03:14:09;9.00;99.90
32293;DHT22;43233;48.608;8.838;2022-09-28T03:16:35;9.00;99.90
32293;DHT22;43233;48.608;8.838;2022-09-28T03:19:00;9.00;99.90
32293;DHT22;43233;48.608;8.838;2022-09-28T03:21:26;9.00;99.90
32293;DHT22;43233;48.608;8.838;2022-09-28T03:23:52;9.00;99.90
32293;DHT22;43233;48.608;8.838;2022-09-28T03:26:17;9.00;99.90
32293;DHT22;43233;48.608;8.838;2022-09-28T03:28:44;9.20;99.90
32293;DHT22;43233;48.608;8.838;2022-09-28T03:31:10;9.20;99.90
32293;DHT22;43233;48.608;8.838;2022-09-28T03:33:35;9.20;99.90
32293;DHT22;43233;48.608;8.838;2022-09-28T03:36:01;9.10;99.90
32293;DHT22;43233;48.608;8.838;2022-09-28T03:38:27;9.10;99.90
32293;DHT22;43233;48.608;8.838;2022-09-28T03:40:57;9.10;99.90
32293;DHT22;43233;48.608;8.838;2022-09-28T03:43:24;9.10;99.90
32293;DHT22;43233;48.608;8.838;2022-09-28T03:46:00;9.10;99.90
32293;DHT22;43233;48.608;8.838;2022-09-28T03:48:33;9.00;99.90
32293;DHT22;43233;48.608;8.838;2022-09-28T03:51:01;9.00;99.90
32293;DHT22;43233;48.608;8.838;2022-09-28T03:53:28;9.00;99.90
32293;DHT22;43233;48.608;8.838;2022-09-28T03:55:54;9.00;99.90
32293;DHT22;43233;48.608;8.838;2022-09-28T03:58:21;9.00;99.90
32293;DHT22;43233;48.608;8.838;2022-09-28T04:00:47;9.00;99.90
32293;DHT22;43233;48.608;8.838;2022-09-28T04:03:13;9.00;99.90
32293;DHT22;43233;48.608;8.838;2022-09-28T04:05:50;9.00;99.90
32293;DHT22;43233;48.608;8.838;2022-09-28T04:08:16;9.00;99.90
32293;DHT22;43233;48.608;8.838;2022-09-28T04:10:42;9.00;99.90
32293;DHT22;43233;48.608;8.838;2022-09-28T04:13:08;9.00;99.90
32293;DHT22;43233;48.608;8.838;2022-09-28T04:15:33;9.00;99.90
32293;DHT22;43233;48.608;8.838;2022-09-28T04:17:59;9.00;99.90
32293;DHT22;43233;48.608;8.838;2022-09-28T04:20:25;9.00;99.90
32293;DHT22;43233;48.608;8.838;2022-09-28T04:22:50;9.00;99.90
32293;DHT22;43233;48.608;8.838;2022-09-28T04:25:16;9.00;99.90
32293;DHT22;43233;48.608;8.838;2022-09-28T04:27:42;8.90;99.90
32293;DHT22;43233;48.608;8.838;2022-09-28T04:30:26;9.00;99.90
32293;DHT22;43233;48.608;8.838;2022-09-28T04:32:52;9.00;99.90
32293;DHT22;43233;48.608;8.838;2022-09-28T04:35:17;9.00;99.90
32293;DHT22;43233;48.608;8.838;2022-09-28T04:37:43;9.00;99.90
32293;DHT22;43233;48.608;8.838;2022-09-28T04:40:09;9.00;99.90
32293;DHT22;43233;48.608;8.838;2022-09-28T04:42:35;9.00;99.90
32293;DHT22;43233;48.608;8.838;2022-09-28T04:45:01;9.10;99.90
32293;DHT22;43233;48.608;8.838;2022-09-28T04:47:29;9.10;99.90
32293;DHT22;43233;48.608;8.838;2022-09-28T04:49:54;9.10;99.90
32293;DHT22;43233;48.608;8.838;2022-09-28T04:52:20;9.10;99.90
32293;DHT22;43233;48.608;8.838;2022-09-28T04:54:46;9.10;99.90
32293;DHT22;43233;48.608;8.838;2022-09-28T04:57:11;9.10;99.90
32293;DHT22;43233;48.608;8.838;2022-09-28T04:59:37;9.20;99.90
32293;DHT22;43233;48.608;8.838;2022-09-28T05:02:03;9.20;99.90
32293;DHT22;43233;48.608;8.838;2022-09-28T05:04:29;9.20;99.90
32293;DHT22;43233;48.608;8.838;2022-09-28T05:06:57;9.20;99.90
32293;DHT22;43233;48.608;8.838;2022-09-28T05:09:23;9.20;99.90
32293;DHT22;43233;48.608;8.838;2022-09-28T05:11:49;9.20;99.90
32293;DHT22;43233;48.608;8.838;2022-09-28T05:14:18;9.20;99.90
32293;DHT22;43233;48.608;8.838;2022-09-28T05:16:44;9.30;99.90
32293;DHT22;43233;48.608;8.838;2022-09-28T05:19:10;9.20;99.90
32293;DHT22;43233;48.608;8.838;2022-09-28T05:21:36;9.20;99.90
32293;DHT22;43233;48.608;8.838;2022-09-28T05:24:02;9.20;99.90
32293;DHT22;43233;48.608;8.838;2022-09-28T05:26:32;9.30;99.90
32293;DHT22;43233;48.608;8.838;2022-09-28T05:28:57;9.30;99.90
32293;DHT22;43233;48.608;8.838;2022-09-28T05:31:23;9.30;99.90
32293;DHT22;43233;48.608;8.838;2022-09-28T05:33:48;9.20;99.90
32293;DHT22;43233;48.608;8.838;2022-09-28T05:36:15;9.20;99.90
32293;DHT22;43233;48.608;8.838;2022-09-28T05:38:40;9.00;99.90
32293;DHT22;43233;48.608;8.838;2022-09-28T05:41:06;8.90;99.90
32293;DHT22;43233;48.608;8.838;2022-09-28T05:43:31;8.80;99.90
32293;DHT22;43233;48.608;8.838;2022-09-28T05:45:58;8.70;99.90
32293;DHT22;43233;48.608;8.838;2022-09-28T05:48:24;8.70;99.90
32293;DHT22;43233;48.608;8.838;2022-09-28T05:50:50;8.70;99.90
32293;DHT22;43233;48.608;8.838;2022-09-28T05:53:16;8.60;99.90
32293;DHT22;43233;48.608;8.838;2022-09-28T05:55:42;8.50;99.90
32293;DHT22;43233;48.608;8.838;2022-09-28T05:58:07;8.50;99.90
32293;DHT22;43233;48.608;8.838;2022-09-28T06:00:34;8.40;99.90
32293;DHT22;43233;48.608;8.838;2022-09-28T06:03:07;8.50;99.90
32293;DHT22;43233;48.608;8.838;2022-09-28T06:05:34;8.50;99.90
32293;DHT22;43233;48.608;8.838;2022-09-28T06:08:00;8.40;99.90
32293;DHT22;43233;48.608;8.838;2022-09-28T06:10:27;8.40;99.90
32293;DHT22;43233;48.608;8.838;2022-09-28T06:12:54;8.40;99.90
32293;DHT22;43233;48.608;8.838;2022-09-28T06:15:20;8.40;99.90
32293;DHT22;43233;48.608;8.838;2022-09-28T06:17:46;8.50;99.90
32293;DHT22;43233;48.608;8.838;2022-09-28T06:20:12;8.50;99.90
32293;DHT22;43233;48.608;8.838;2022-09-28T06:22:38;8.40;99.90
32293;DHT22;43233;48.608;8.838;2022-09-28T06:25:04;8.40;99.90
32293;DHT22;43233;48.608;8.838;2022-09-28T06:27:31;8.40;99.90
32293;DHT22;43233;48.608;8.838;2022-09-28T06:29:57;8.40;99.90
32293;DHT22;43233;48.608;8.838;2022-09-28T06:32:25;8.40;99.90
32293;DHT22;43233;48.608;8.838;2022-09-28T06:34:53;8.40;99.90
32293;DHT22;43233;48.608;8.838;2022-09-28T06:37:19;8.40;99.90
32293;DHT22;43233;48.608;8.838;2022-09-28T06:39:44;8.40;99.90
32293;DHT22;43233;48.608;8.838;2022-09-28T06:42:10;8.40;99.90
32293;DHT22;43233;48.608;8.838;2022-09-28T06:44:36;8.50;99.90
32293;DHT22;43233;48.608;8.838;2022-09-28T06:47:01;8.50;99.90
32293;DHT22;43233;48.608;8.838;2022-09-28T06:49:27;8.50;99.90
32293;DHT22;43233;48.608;8.838;2022-09-28T06:51:54;8.50;99.90
32293;DHT22;43233;48.608;8.838;2022-09-28T06:54:20;8.60;99.90
32293;DHT22;43233;48.608;8.838;2022-09-28T06:56:53;8.60;99.90
32293;DHT22;43233;48.608;8.838;2022-09-28T06:59:18;8.60;99.90
32293;DHT22;43233;48.608;8.838;2022-09-28T07:01:44;8.60;99.90
32293;DHT22;43233;48.608;8.838;2022-09-28T07:04:10;8.70;99.90
32293;DHT22;43233;48.608;8.838;2022-09-28T07:06:37;8.70;99.90
32293;DHT22;43233;48.608;8.838;2022-09-28T07:09:03;8.80;99.90
32293;DHT22;43233;48.608;8.838;2022-09-28T07:11:36;8.90;99.90
32293;DHT22;43233;48.608;8.838;2022-09-28T07:14:04;8.90;99.90
32293;DHT22;43233;48.608;8.838;2022-09-28T07:16:30;8.90;99.90
32293;DHT22;43233;48.608;8.838;2022-09-28T07:18:55;9.00;99.90
32293;DHT22;43233;48.608;8.838;2022-09-28T07:21:21;9.00;99.90
32293;DHT22;43233;48.608;8.838;2022-09-28T07:23:47;9.00;99.90
32293;DHT22;43233;48.608;8.838;2022-09-28T07:26:13;9.00;99.90
32293;DHT22;43233;48.608;8.838;2022-09-28T07:28:40;9.10;99.90
32293;DHT22;43233;48.608;8.838;2022-09-28T07:31:07;9.10;99.90
32293;DHT22;43233;48.608;8.838;2022-09-28T07:33:33;9.10;99.90
32293;DHT22;43233;48.608;8.838;2022-09-28T07:35:59;9.10;99.90
32293;DHT22;43233;48.608;8.838;2022-09-28T07:38:27;9.10;99.90
32293;DHT22;43233;48.608;8.838;2022-09-28T07:40:53;9.10;99.90
32293;DHT22;43233;48.608;8.838;2022-09-28T07:43:41;9.10;99.90
32293;DHT22;43233;48.608;8.838;2022-09-28T07:46:08;9.10;99.90
32293;DHT22;43233;48.608;8.838;2022-09-28T07:48:38;9.10;99.90
32293;DHT22;43233;48.608;8.838;2022-09-28T07:51:04;9.00;99.90
32293;DHT22;43233;48.608;8.838;2022-09-28T07:53:30;9.00;99.90
32293;DHT22;43233;48.608;8.838;2022-09-28T07:55:59;9.10;99.90
32293;DHT22;43233;48.608;8.838;2022-09-28T07:58:30;9.20;99.90
32293;DHT22;43233;48.608;8.838;2022-09-28T08:00:57;9.20;99.90
32293;DHT22;43233;48.608;8.838;2022-09-28T08:03:26;9.30;99.90
32293;DHT22;43233;48.608;8.838;2022-09-28T08:06:00;9.20;99.90
32293;DHT22;43233;48.608;8.838;2022-09-28T08:08:26;9.10;99.90
32293;DHT22;43233;48.608;8.838;2022-09-28T08:10:53;9.00;99.90
32293;DHT22;43233;48.608;8.838;2022-09-28T08:13:19;9.00;99.90
32293;DHT22;43233;48.608;8.838;2022-09-28T08:15:45;9.00;99.90
32293;DHT22;43233;48.608;8.838;2022-09-28T08:18:12;9.00;99.90
32293;DHT22;43233;48.608;8.838;2022-09-28T08:20:38;9.10;99.90
32293;DHT22;43233;48.608;8.838;2022-09-28T08:23:22;9.10;99.90
32293;DHT22;43233;48.608;8.838;2022-09-28T08:25:50;9.30;99.90
32293;DHT22;43233;48.608;8.838;2022-09-28T08:28:18;9.30;99.90
32293;DHT22;43233;48.608;8.838;2022-09-28T08:30:46;9.30;99.90
32293;DHT22;43233;48.608;8.838;2022-09-28T08:33:13;9.30;99.90
32293;DHT22;43233;48.608;8.838;2022-09-28T08:35:39;9.30;99.90
32293;DHT22;43233;48.608;8.838;2022-09-28T08:38:08;9.30;99.90
32293;DHT22;43233;48.608;8.838;2022-09-28T08:40:53;9.40;99.90
32293;DHT22;43233;48.608;8.838;2022-09-28T08:43:48;9.40;99.90
32293;DHT22;43233;48.608;8.838;2022-09-28T08:46:19;9.40;99.90
32293;DHT22;43233;48.608;8.838;2022-09-28T08:48:52;9.50;99.90
32293;DHT22;43233;48.608;8.838;2022-09-28T08:51:29;9.50;99.90
32293;DHT22;43233;48.608;8.838;2022-09-28T08:54:03;9.60;99.90
32293;DHT22;43233;48.608;8.838;2022-09-28T08:57:18;9.60;99.90
32293;DHT22;43233;48.608;8.838;2022-09-28T08:59:56;9.70;99.90
32293;DHT22;43233;48.608;8.838;2022-09-28T09:02:30;9.80;99.90
32293;DHT22;43233;48.608;8.838;2022-09-28T09:05:02;9.90;99.90
32293;DHT22;43233;48.608;8.838;2022-09-28T09:10:19;9.70;99.90
32293;DHT22;43233;48.608;8.838;2022-09-28T09:18:29;9.60;99.90
32293;DHT22;43233;48.608;8.838;2022-09-28T09:21:47;9.60;99.90
32293;DHT22;43233;48.608;8.838;2022-09-28T09:24:02;9.70;99.90
32293;DHT22;43233;48.608;8.838;2022-09-28T09:26:39;9.70;99.90
32293;DHT22;43233;48.608;8.838;2022-09-28T09:43:04;9.80;99.90
32293;DHT22;43233;48.608;8.838;2022-09-28T09:46:19;9.80;99.90
32293;DHT22;43233;48.608;8.838;2022-09-28T09:48:59;9.90;99.90
32293;DHT22;43233;48.608;8.838;2022-09-28T09:54:17;10.00;99.90
32293;DHT22;43233;48.608;8.838;2022-09-28T09:59:25;9.90;99.90
32293;DHT22;43233;48.608;8.838;2022-09-28T10:01:52;10.00;99.90
32293;DHT22;43233;48.608;8.838;2022-09-28T10:04:45;9.90;99.90
32293;DHT22;43233;48.608;8.838;2022-09-28T10:10:19;9.90;99.90
32293;DHT22;43233;48.608;8.838;2022-09-28T10:12:47;9.90;99.90
32293;DHT22;43233;48.608;8.838;2022-09-28T10:15:15;9.80;99.90
32293;DHT22;43233;48.608;8.838;2022-09-28T10:17:43;9.80;99.90
32293;DHT22;43233;48.608;8.838;2022-09-28T10:20:14;9.80;99.90
32293;DHT22;43233;48.608;8.838;2022-09-28T10:22:41;9.80;99.90
32293;DHT22;43233;48.608;8.838;2022-09-28T10:25:08;9.80;99.90
32293;DHT22;43233;48.608;8.838;2022-09-28T10:27:37;9.90;99.90
32293;DHT22;43233;48.608;8.838;2022-09-28T10:30:18;10.00;99.90
32293;DHT22;43233;48.608;8.838;2022-09-28T10:32:46;10.00;99.90
32293;DHT22;43233;48.608;8.838;2022-09-28T10:35:24;10.10;99.90
32293;DHT22;43233;48.608;8.838;2022-09-28T10:38:04;10.20;99.90
32293;DHT22;43233;48.608;8.838;2022-09-28T10:40:58;10.20;99.90
32293;DHT22;43233;48.608;8.838;2022-09-28T10:48:31;10.30;99.90
32293;DHT22;43233;48.608;8.838;2022-09-28T10:51:04;10.30;99.90
32293;DHT22;43233;48.608;8.838;2022-09-28T10:53:31;10.40;99.90
32293;DHT22;43233;48.608;8.838;2022-09-28T10:56:05;10.40;99.90
32293;DHT22;43233;48.608;8.838;2022-09-28T10:58:39;10.40;99.90
32293;DHT22;43233;48.608;8.838;2022-09-28T11:01:31;10.50;99.90
32293;DHT22;43233;48.608;8.838;2022-09-28T11:04:03;10.50;99.90
32293;DHT22;43233;48.608;8.838;2022-09-28T11:06:31;10.60;99.90
32293;DHT22;43233;48.608;8.838;2022-09-28T11:09:00;10.60;99.90
32293;DHT22;43233;48.608;8.838;2022-09-28T11:11:27;10.60;99.90
32293;DHT22;43233;48.608;8.838;2022-09-28T11:13:56;10.60;99.90
32293;DHT22;43233;48.608;8.838;2022-09-28T11:16:29;10.60;99.90
32293;DHT22;43233;48.608;8.838;2022-09-28T11:18:57;10.70;99.90
32293;DHT22;43233;48.608;8.838;2022-09-28T11:21:28;10.70;99.90
32293;DHT22;43233;48.608;8.838;2022-09-28T11:24:04;10.70;99.90
32293;DHT22;43233;48.608;8.838;2022-09-28T11:26:43;10.80;99.90
32293;DHT22;43233;48.608;8.838;2022-09-28T11:29:35;10.90;99.90
32293;DHT22;43233;48.608;8.838;2022-09-28T11:32:02;10.90;99.90
32293;DHT22;43233;48.608;8.838;2022-09-28T11:34:49;11.00;99.90
32293;DHT22;43233;48.608;8.838;2022-09-28T11:37:40;10.90;99.90
32293;DHT22;43233;48.608;8.838;2022-09-28T11:49:00;10.90;99.90
32293;DHT22;43233;48.608;8.838;2022-09-28T11:51:30;10.90;99.90
32293;DHT22;43233;48.608;8.838;2022-09-28T11:54:08;10.90;99.90
32293;DHT22;43233;48.608;8.838;2022-09-28T11:56:49;10.90;99.90
32293;DHT22;43233;48.608;8.838;2022-09-28T11:59:38;10.90;99.90
32293;DHT22;43233;48.608;8.838;2022-09-28T12:02:16;11.00;99.90
32293;DHT22;43233;48.608;8.838;2022-09-28T12:05:00;11.10;99.90
32293;DHT22;43233;48.608;8.838;2022-09-28T12:07:40;11.10;99.90
32293;DHT22;43233;48.608;8.838;2022-09-28T12:10:28;11.10;99.70
32293;DHT22;43233;48.608;8.838;2022-09-28T12:13:08;11.00;99.90
32293;DHT22;43233;48.608;8.838;2022-09-28T12:16:06;11.00;97.00
32293;DHT22;43233;48.608;8.838;2022-09-28T12:18:43;11.10;99.90
32293;DHT22;43233;48.608;8.838;2022-09-28T12:21:39;11.10;99.10
32293;DHT22;43233;48.608;8.838;2022-09-28T12:24:26;11.00;95.80
32293;DHT22;43233;48.608;8.838;2022-09-28T12:27:11;10.90;99.90
32293;DHT22;43233;48.608;8.838;2022-09-28T12:30:17;10.90;99.90
32293;DHT22;43233;48.608;8.838;2022-09-28T12:33:00;11.00;99.90
32293;DHT22;43233;48.608;8.838;2022-09-28T12:38:50;11.00;99.90
32293;DHT22;43233;48.608;8.838;2022-09-28T12:52:49;11.30;99.90
32293;DHT22;43233;48.608;8.838;2022-09-28T13:00:19;11.20;98.30
32293;DHT22;43233;48.608;8.838;2022-09-28T13:09:05;11.40;97.60
32293;DHT22;43233;48.608;8.838;2022-09-28T13:14:34;11.40;96.80
32293;DHT22;43233;48.608;8.838;2022-09-28T13:23:21;11.30;96.60
32293;DHT22;43233;48.608;8.838;2022-09-28T13:26:15;11.40;99.60
32293;DHT22;43233;48.608;8.838;2022-09-28T13:28:44;11.60;94.60
32293;DHT22;43233;48.608;8.838;2022-09-28T13:31:11;11.60;86.40
32293;DHT22;43233;48.608;8.838;2022-09-28T13:33:43;11.60;87.80
32293;DHT22;43233;48.608;8.838;2022-09-28T13:38:51;11.50;86.40
32293;DHT22;43233;48.608;8.838;2022-09-28T13:41:35;11.50;87.70
32293;DHT22;43233;48.608;8.838;2022-09-28T13:52:24;11.30;87.40
32293;DHT22;43233;48.608;8.838;2022-09-28T13:55:12;11.30;89.50
32293;DHT22;43233;48.608;8.838;2022-09-28T14:10:50;11.90;84.60
32293;DHT22;43233;48.608;8.838;2022-09-28T14:16:23;12.30;85.90
32293;DHT22;43233;48.608;8.838;2022-09-28T14:18:58;12.50;82.30
32293;DHT22;43233;48.608;8.838;2022-09-28T14:27:11;12.90;74.60
32293;DHT22;43233;48.608;8.838;2022-09-28T14:29:46;12.80;77.30
32293;DHT22;43233;48.608;8.838;2022-09-28T14:34:42;12.80;74.70
32293;DHT22;43233;48.608;8.838;2022-09-28T14:37:24;12.80;75.00
32293;DHT22;43233;48.608;8.838;2022-09-28T14:43:27;12.90;75.00
32293;DHT22;43233;48.608;8.838;2022-09-28T14:48:52;13.20;70.10
32293;DHT22;43233;48.608;8.838;2022-09-28T14:59:16;13.40;66.60
32293;DHT22;43233;48.608;8.838;2022-09-28T15:01:46;13.30;69.30
32293;DHT22;43233;48.608;8.838;2022-09-28T15:04:15;13.20;65.50
32293;DHT22;43233;48.608;8.838;2022-09-28T15:06:49;13.20;66.10
32293;DHT22;43233;48.608;8.838;2022-09-28T15:12:03;13.10;66.50
32293;DHT22;43233;48.608;8.838;2022-09-28T15:14:34;13.10;65.30
32293;DHT22;43233;48.608;8.838;2022-09-28T15:17:07;13.00;67.00
32293;DHT22;43233;48.608;8.838;2022-09-28T15:19:52;12.80;67.10
32293;DHT22;43233;48.608;8.838;2022-09-28T15:22:20;12.70;67.80
32293;DHT22;43233;48.608;8.838;2022-09-28T15:24:58;12.70;66.10
32293;DHT22;43233;48.608;8.838;2022-09-28T15:27:24;12.70;67.10
32293;DHT22;43233;48.608;8.838;2022-09-28T15:29:58;12.70;67.50
32293;DHT22;43233;48.608;8.838;2022-09-28T15:32:27;12.60;68.50
32293;DHT22;43233;48.608;8.838;2022-09-28T15:34:54;12.60;68.80
32293;DHT22;43233;48.608;8.838;2022-09-28T15:37:23;12.70;70.70
32293;DHT22;43233;48.608;8.838;2022-09-28T15:39:50;12.70;68.50
32293;DHT22;43233;48.608;8.838;2022-09-28T15:42:17;12.80;68.60
32293;DHT22;43233;48.608;8.838;2022-09-28T15:47:27;12.70;67.60
32293;DHT22;43233;48.608;8.838;2022-09-28T15:50:04;12.60;67.80
32293;DHT22;43233;48.608;8.838;2022-09-28T15:52:36;12.40;67.90
32293;DHT22;43233;48.608;8.838;2022-09-28T15:55:19;12.40;69.40
32293;DHT22;43233;48.608;8.838;2022-09-28T15:57:45;12.40;68.70
32293;DHT22;43233;48.608;8.838;2022-09-28T16:00:22;12.50;68.70
32293;DHT22;43233;48.608;8.838;2022-09-28T16:08:21;12.40;66.70
32293;DHT22;43233;48.608;8.838;2022-09-28T16:11:37;12.40;67.80
32293;DHT22;43233;48.608;8.838;2022-09-28T16:13:59;12.40;67.30
32293;DHT22;43233;48.608;8.838;2022-09-28T16:16:47;12.20;67.90
32293;DHT22;43233;48.608;8.838;2022-09-28T16:19:31;12.10;68.90
32293;DHT22;43233;48.608;8.838;2022-09-28T16:22:03;12.10;68.50
32293;DHT22;43233;48.608;8.838;2022-09-28T16:24:35;12.00;69.50
32293;DHT22;43233;48.608;8.838;2022-09-28T16:27:15;12.00;70.00
32293;DHT22;43233;48.608;8.838;2022-09-28T16:30:10;12.10;70.70
32293;DHT22;43233;48.608;8.838;2022-09-28T16:32:44;12.20;70.10
32293;DHT22;43233;48.608;8.838;2022-09-28T16:35:18;12.20;70.80
32293;DHT22;43233;48.608;8.838;2022-09-28T16:37:44;12.10;70.30
32293;DHT22;43233;48.608;8.838;2022-09-28T16:40:12;12.20;70.20
32293;DHT22;43233;48.608;8.838;2022-09-28T16:42:39;12.20;72.00
32293;DHT22;43233;48.608;8.838;2022-09-28T16:45:06;12.20;72.80
32293;DHT22;43233;48.608;8.838;2022-09-28T16:47:32;12.10;72.60
32293;DHT22;43233;48.608;8.838;2022-09-28T16:50:03;12.10;72.30
32293;DHT22;43233;48.608;8.838;2022-09-28T16:52:31;12.00;72.20
32293;DHT22;43233;48.608;8.838;2022-09-28T16:55:16;12.00;72.20
32293;DHT22;43233;48.608;8.838;2022-09-28T16:57:43;11.90;73.40
32293;DHT22;43233;48.608;8.838;2022-09-28T17:00:14;11.80;73.80
32293;DHT22;43233;48.608;8.838;2022-09-28T17:02:45;11.80;74.70
32293;DHT22;43233;48.608;8.838;2022-09-28T17:05:16;11.60;76.00
32293;DHT22;43233;48.608;8.838;2022-09-28T17:07:43;11.50;77.20
32293;DHT22;43233;48.608;8.838;2022-09-28T17:10:17;11.40;78.40
32293;DHT22;43233;48.608;8.838;2022-09-28T17:12:45;11.30;80.70
32293;DHT22;43233;48.608;8.838;2022-09-28T17:15:10;11.20;82.50
32293;DHT22;43233;48.608;8.838;2022-09-28T17:17:36;11.10;84.20
32293;DHT22;43233;48.608;8.838;2022-09-28T17:20:25;11.10;85.90
32293;DHT22;43233;48.608;8.838;2022-09-28T17:22:51;11.00;87.70
32293;DHT22;43233;48.608;8.838;2022-09-28T17:25:19;10.90;89.60
32293;DHT22;43233;48.608;8.838;2022-09-28T17:27:46;10.80;91.30
32293;DHT22;43233;48.608;8.838;2022-09-28T17:30:13;10.70;94.40
32293;DHT22;43233;48.608;8.838;2022-09-28T17:32:40;10.50;98.00
32293;DHT22;43233;48.608;8.838;2022-09-28T17:35:13;10.40;99.90
32293;DHT22;43233;48.608;8.838;2022-09-28T17:37:39;10.30;99.90
32293;DHT22;43233;48.608;8.838;2022-09-28T17:42:46;10.00;99.90
32293;DHT22;43233;48.608;8.838;2022-09-28T17:45:15;9.90;99.90
32293;DHT22;43233;48.608;8.838;2022-09-28T17:47:42;9.80;99.90
32293;DHT22;43233;48.608;8.838;2022-09-28T17:52:46;9.60;99.90
32293;DHT22;43233;48.608;8.838;2022-09-28T17:55:11;9.50;99.90
32293;DHT22;43233;48.608;8.838;2022-09-28T17:57:37;9.40;99.90
32293;DHT22;43233;48.608;8.838;2022-09-28T18:00:03;9.40;99.90
32293;DHT22;43233;48.608;8.838;2022-09-28T18:02:29;9.40;99.90
32293;DHT22;43233;48.608;8.838;2022-09-28T18:04:55;9.40;99.90
32293;DHT22;43233;48.608;8.838;2022-09-28T18:07:20;9.30;99.90
32293;DHT22;43233;48.608;8.838;2022-09-28T18:09:46;9.30;99.90
32293;DHT22;43233;48.608;8.838;2022-09-28T18:12:12;9.30;99.90
32293;DHT22;43233;48.608;8.838;2022-09-28T18:14:38;9.20;99.90
32293;DHT22;43233;48.608;8.838;2022-09-28T18:17:04;9.20;99.90
32293;DHT22;43233;48.608;8.838;2022-09-28T18:19:30;9.30;99.90
32293;DHT22;43233;48.608;8.838;2022-09-28T18:21:55;9.20;99.90
32293;DHT22;43233;48.608;8.838;2022-09-28T18:24:22;9.20;99.90
32293;DHT22;43233;48.608;8.838;2022-09-28T18:26:48;9.10;99.90
32293;DHT22;43233;48.608;8.838;2022-09-28T18:29:16;9.10;99.90
32293;DHT22;43233;48.608;8.838;2022-09-28T18:31:41;9.10;99.90
32293;DHT22;43233;48.608;8.838;2022-09-28T18:34:07;9.00;99.90
32293;DHT22;43233;48.608;8.838;2022-09-28T18:36:32;8.90;99.90
32293;DHT22;43233;48.608;8.838;2022-09-28T18:39:00;8.90;99.90
32293;DHT22;43233;48.608;8.838;2022-09-28T18:41:26;8.80;99.90
32293;DHT22;43233;48.608;8.838;2022-09-28T18:43:51;8.80;99.90
32293;DHT22;43233;48.608;8.838;2022-09-28T18:46:19;8.80;99.90
32293;DHT22;43233;48.608;8.838;2022-09-28T18:48:45;8.80;99.90
32293;DHT22;43233;48.608;8.838;2022-09-28T18:51:12;8.70;99.90
32293;DHT22;43233;48.608;8.838;2022-09-28T18:53:38;8.70;99.90
32293;DHT22;43233;48.608;8.838;2022-09-28T18:56:12;8.70;99.90
32293;DHT22;43233;48.608;8.838;2022-09-28T18:58:40;8.60;99.90
32293;DHT22;43233;48.608;8.838;2022-09-28T19:01:13;8.60;99.90
32293;DHT22;43233;48.608;8.838;2022-09-28T19:03:40;8.60;99.90
32293;DHT22;43233;48.608;8.838;2022-09-28T19:06:11;8.60;99.90
32293;DHT22;43233;48.608;8.838;2022-09-28T19:08:38;8.60;99.90
32293;DHT22;43233;48.608;8.838;2022-09-28T19:11:08;8.60;99.90
32293;DHT22;43233;48.608;8.838;2022-09-28T19:13:34;8.50;99.90
32293;DHT22;43233;48.608;8.838;2022-09-28T19:16:05;8.40;99.90